Aérodrome :
LOGIN :

S'inscrire | Disclaimer

   EN    FR    IT 

 










Légende :    VFR   VFR Marginal   IFR   IFR Intensif   IFR Très Intensif
Visi : 
Plafond : 
>= 8 km
>= 3000ft
5 à 8 km
1000 à 3000 ft
1500m à 5 km
500 à 1000 ft
800 à 1500m
200 à 500 ft
< 800m
< 200 ft
Symboles :   Orages  Brouillard  Fortes neiges  Fortes précipitations  Vent > 20 kt
SIGMETs :   Divers  Orages  Givrage  Turbulence  Onde Orograph.  Cendres Volcan.






- Altitude de l'aérodrome : 359 ft
- Code IATA : BVA


LFOB - Beauvais

DERNIER METAR :
  • 131730Z AUTO 22011KT 9999 BKN046 BKN056 OVC070 25/16 Q1011 TEMPO VRB20G30KT 3000 SHRA BKN007 BKN030CB

METARs EXPIRÉS :
  • 131700Z AUTO 18009KT 160V220 9999 FEW045 BKN058 BKN076 27/16 Q1011 TEMPO VRB15G30KT 3000 SHRA BKN030CB
  • 131630Z AUTO 16011KT CAVOK 27/16 Q1011 TEMPO VRB15G30KT 3000 SHRA BKN030CB
  • 131600Z AUTO 19012KT 150V210 CAVOK 28/16 Q1011 TEMPO VRB15G30KT 3000 SHRA BKN030CB
  • 131530Z AUTO 17009KT CAVOK 28/16 Q1011 TEMPO VRB15G30KT 3000 SHRA BKN030CB
  • 131500Z AUTO VRB07KT 9999 FEW043/// BKN052/// BKN078/// ///CB 27/19 Q1011 TEMPO VRB15G30KT 3000 SHRA

TAF TAF LFOB
Valide du 13 à 18h jusqu'au 14 à 18h UTC


131700Z 1318/1418 17005KT 9999 SCT030
TEMPO 1318/1324 3000 SHRA BKN030CB
PROB30
TEMPO 1318/1324 VRB20G30KT TSRA BKN007 BKN030CB
FM140000 23007KT 9999 BKN015 BKN030
TEMPO 1400/1418 3000 SHRA BKN007 BKN015TCU
ATIS : +33 3 44 11 49 28



MET'MAP, la Météo Aéronautique d'un coup d'oeil ! - Copyright ORBIFLY Décembre 2007 - Disclaimer

ORBIFLY MET'MAP TEAM :

Programmation & Développement : Alexandra Zaïnal
Sur une idée originale de : Baudouin d'Aumeries
Assistance à la programmation : Marc-Olivier Méhu
Soutien technique & logistique : Manuel Goepfert

Contact : metmap@orbifly.com




SOURCES & CREDITS :

   NOAA